Weather at Muara Wahau Airport

Public forecast

Using degrees Celsius for public forecast. Weather courtesy of forecast.io.

Closest aviation weather report (METAR) to Muara Wahau Airport

Closest report is Sibu Airport, 299.9 nm (555.5 km) WNW.

2024/03/03 09:00 (retrieved 24 minutes ago)

WBGS 030900Z 34009KT 300V010 9999 FEW015CB SCT016 30/26 Q1007

Closest aviation forecast (TAF) to Muara Wahau Airport

Closest forecast is Aji Pangeran Tumenggung Pranoto International Airport, 92.9 nm (172.1 km) SSE.

2024/03/03 06:00 (retrieved 3 hours ago)

TAF WALS 030500Z 0306/0318 07008KT 9999 SCT017 PROB30 TEMPO 0307/0310 5000 RA FEW015CB